Terminal Aerodrome Forecast
Issued by NWS Austin/San Antonio, TX

Home | Current Version | Previous Version | Text Only | Print | Product List | Glossary On
Versions: 1 2 3 4 5 6 7 8 9 10 11 12 13 14
000
FTUS44 KEWX 302300
TAFDRT
TAF
KDRT 302322Z 3100/3124 11010G15KT P6SM BKN080
      TEMPO 3100/3101 06020G25KT
     FM310100 11008KT P6SM SKC
     FM311700 15010KT P6SM SKC=

USA.gov is the U.S. government's official web portal to all federal, state and local government web resources and services.